createdAt,value
2022-12-08T00:01:42.835Z,21.40
2022-12-08T00:04:10.318Z,24.20
2022-12-08T00:06:59.343Z,23.43
2022-12-08T00:09:37.975Z,22.47
2022-12-08T00:12:13.078Z,23.57
2022-12-08T00:14:42.474Z,22.10
2022-12-08T00:17:11.922Z,22.67
2022-12-08T00:19:39.475Z,23.40
2022-12-08T00:22:07.796Z,22.57
2022-12-08T00:24:40.530Z,21.73
2022-12-08T00:27:12.441Z,22.90
2022-12-08T00:29:39.630Z,24.70
2022-12-08T00:32:07.175Z,23.67
2022-12-08T00:34:34.337Z,20.27
2022-12-08T00:37:01.307Z,21.80
2022-12-08T00:39:28.209Z,23.13
2022-12-08T00:42:13.351Z,21.83
2022-12-08T00:44:45.818Z,21.63
2022-12-08T00:47:13.772Z,21.77
2022-12-08T00:49:40.867Z,19.73
2022-12-08T00:52:07.801Z,19.03
2022-12-08T00:54:34.811Z,20.97
2022-12-08T00:57:01.821Z,20.70
2022-12-08T00:59:28.675Z,20.07
2022-12-08T01:01:55.561Z,18.93
2022-12-08T01:04:22.723Z,18.17
2022-12-08T01:06:49.942Z,17.77
2022-12-08T01:09:18.331Z,17.90
2022-12-08T01:11:45.956Z,19.60
2022-12-08T01:14:13.061Z,18.53
2022-12-08T01:16:41.686Z,16.43
2022-12-08T01:19:11.869Z,15.97
2022-12-08T01:21:38.849Z,17.63
2022-12-08T01:24:06.265Z,15.87
2022-12-08T01:26:33.198Z,16.13
2022-12-08T01:29:00.046Z,16.77
2022-12-08T01:31:27.350Z,17.27
2022-12-08T01:33:54.366Z,16.87
2022-12-08T01:36:24.138Z,16.77
2022-12-08T01:38:52.149Z,17.60
2022-12-08T01:41:22.471Z,17.57
2022-12-08T01:43:58.439Z,16.60
2022-12-08T01:46:26.578Z,17.37
2022-12-08T01:49:07.892Z,15.43
2022-12-08T01:51:41.925Z,16.83
2022-12-08T01:54:09.408Z,15.77
2022-12-08T01:56:43.396Z,17.27
2022-12-08T01:59:12.380Z,16.47
2022-12-08T02:01:40.007Z,16.87
2022-12-08T02:04:06.925Z,18.37
2022-12-08T02:06:39.758Z,15.77
2022-12-08T02:09:07.502Z,16.53
2022-12-08T02:11:34.449Z,14.40
2022-12-08T02:14:08.348Z,14.40
2022-12-08T02:16:44.173Z,14.20
2022-12-08T02:19:48.147Z,14.40
2022-12-08T02:22:20.338Z,13.97
2022-12-08T02:25:09.770Z,14.63
2022-12-08T02:27:53.378Z,13.80
2022-12-08T02:30:20.311Z,13.73
2022-12-08T02:32:56.245Z,13.10
2022-12-08T02:36:07.543Z,12.53
2022-12-08T02:38:46.373Z,13.40
2022-12-08T02:41:24.652Z,14.87
2022-12-08T02:44:46.998Z,14.33
2022-12-08T02:47:18.001Z,14.27
2022-12-08T02:49:45.281Z,15.30
2022-12-08T02:52:12.120Z,15.70
2022-12-08T02:54:46.963Z,13.90
2022-12-08T02:57:38.949Z,14.30
2022-12-08T03:00:08.889Z,12.70
2022-12-08T03:03:05.115Z,12.77
2022-12-08T03:09:27.616Z,14.03
2022-12-08T03:12:06.761Z,14.47
2022-12-08T03:14:34.942Z,15.47
2022-12-08T03:17:03.340Z,14.20
2022-12-08T03:19:35.685Z,15.20
2022-12-08T03:22:04.984Z,14.93
2022-12-08T03:24:37.909Z,15.73
2022-12-08T03:27:09.848Z,15.47
2022-12-08T03:29:36.806Z,16.80
2022-12-08T03:32:19.398Z,16.50
2022-12-08T03:34:48.122Z,15.60
2022-12-08T03:37:15.417Z,17.93
2022-12-08T03:39:42.566Z,17.70
2022-12-08T03:42:09.485Z,15.80
2022-12-08T03:44:36.339Z,16.90
2022-12-08T03:47:03.244Z,16.07
2022-12-08T03:49:30.117Z,17.33
2022-12-08T03:52:04.116Z,19.10
2022-12-08T03:54:33.493Z,17.30
2022-12-08T03:57:00.419Z,17.17
2022-12-08T03:59:27.261Z,17.10
2022-12-08T04:01:54.141Z,15.27
2022-12-08T04:04:21.076Z,15.77
2022-12-08T04:06:47.945Z,16.37
2022-12-08T04:09:14.846Z,13.60
2022-12-08T04:11:41.723Z,15.40
2022-12-08T04:14:08.687Z,15.53
2022-12-08T04:16:35.692Z,15.60
2022-12-08T04:19:02.679Z,13.93
2022-12-08T04:21:29.623Z,15.77
2022-12-08T04:24:00.990Z,15.03
2022-12-08T04:26:28.506Z,16.10
2022-12-08T04:28:55.413Z,17.60
2022-12-08T04:31:22.339Z,16.73
2022-12-08T04:33:49.241Z,14.60
2022-12-08T04:36:16.164Z,16.27
2022-12-08T04:38:42.994Z,15.30
2022-12-08T04:41:09.854Z,17.00
2022-12-08T04:43:37.134Z,15.50
2022-12-08T04:46:09.060Z,15.57
2022-12-08T04:48:40.372Z,15.30
2022-12-08T04:51:07.951Z,16.23
2022-12-08T04:53:34.784Z,16.90
2022-12-08T04:56:01.618Z,15.73
2022-12-08T04:58:28.509Z,16.93
2022-12-08T05:00:55.410Z,16.57
2022-12-08T05:03:28.357Z,17.93
2022-12-08T05:05:56.012Z,17.07
2022-12-08T05:08:23.093Z,17.40
2022-12-08T05:10:50.069Z,18.93
2022-12-08T05:13:16.985Z,20.67
2022-12-08T05:15:44.151Z,19.03
2022-12-08T05:18:11.327Z,19.37
2022-12-08T05:20:38.185Z,20.07
2022-12-08T05:23:05.160Z,20.77
2022-12-08T05:25:32.087Z,21.30
2022-12-08T05:28:24.808Z,20.17
2022-12-08T05:30:46.374Z,21.90
2022-12-08T05:33:13.241Z,19.87
2022-12-08T05:35:40.292Z,20.93
2022-12-08T05:38:07.536Z,19.53
2022-12-08T05:40:34.511Z,23.17
2022-12-08T05:43:01.344Z,20.70
2022-12-08T05:45:28.324Z,21.43
2022-12-08T05:47:55.320Z,21.13
2022-12-08T05:50:22.199Z,20.50
2022-12-08T05:52:49.062Z,20.13
2022-12-08T05:55:16.074Z,20.87
2022-12-08T05:57:43.188Z,20.27
2022-12-08T06:00:10.683Z,20.73
2022-12-08T06:02:40.870Z,19.27
2022-12-08T06:05:08.377Z,19.17
2022-12-08T06:07:35.521Z,18.03
2022-12-08T06:10:03.032Z,16.77
2022-12-08T06:12:30.322Z,17.17
2022-12-08T06:14:57.246Z,19.70
2022-12-08T06:17:24.129Z,18.43
2022-12-08T06:19:50.997Z,17.13
2022-12-08T06:22:17.868Z,17.43
2022-12-08T06:24:44.733Z,17.20
2022-12-08T06:27:11.660Z,15.70
2022-12-08T06:29:38.508Z,16.37
2022-12-08T06:32:05.676Z,15.83
2022-12-08T06:34:32.581Z,15.67
2022-12-08T06:36:59.373Z,15.17
2022-12-08T06:39:26.332Z,14.57
2022-12-08T06:42:11.409Z,19.20
2022-12-08T06:44:38.901Z,16.83
2022-12-08T06:47:05.838Z,17.20
2022-12-08T06:49:32.666Z,17.37
2022-12-08T06:51:59.563Z,18.07
2022-12-08T06:54:26.826Z,17.93
2022-12-08T06:56:53.624Z,16.73
2022-12-08T06:59:20.497Z,16.30
2022-12-08T07:01:47.441Z,16.90
2022-12-08T07:04:14.432Z,18.77
2022-12-08T07:06:41.355Z,18.30
2022-12-08T07:09:08.200Z,18.07
2022-12-08T07:11:35.076Z,18.63
2022-12-08T07:14:02.002Z,15.60
2022-12-08T07:16:29.232Z,20.17
2022-12-08T07:18:56.157Z,19.30
2022-12-08T07:21:23.459Z,19.53
2022-12-08T07:23:55.961Z,20.67
2022-12-08T07:26:25.357Z,19.03
2022-12-08T07:28:52.437Z,19.47
2022-12-08T07:31:22.357Z,18.10
2022-12-08T07:33:50.409Z,17.37
2022-12-08T07:36:17.605Z,19.57
2022-12-08T07:38:45.059Z,17.93
2022-12-08T07:41:13.794Z,17.87
2022-12-08T07:43:41.941Z,20.93
2022-12-08T07:46:12.609Z,19.40
2022-12-08T07:48:39.610Z,20.40
2022-12-08T07:51:07.111Z,22.10
2022-12-08T07:53:34.328Z,21.20
2022-12-08T07:56:01.303Z,18.63
2022-12-08T07:58:28.264Z,20.20
2022-12-08T08:00:55.265Z,20.83
2022-12-08T08:03:22.452Z,20.00
2022-12-08T08:05:50.108Z,19.50
2022-12-08T08:08:17.749Z,18.70
2022-12-08T08:10:46.299Z,19.37
2022-12-08T08:13:13.806Z,20.50
2022-12-08T08:15:40.993Z,21.77
2022-12-08T08:18:07.953Z,22.07
2022-12-08T08:20:34.840Z,22.07
2022-12-08T08:23:01.768Z,22.20
2022-12-08T08:25:28.880Z,20.87
2022-12-08T08:27:55.882Z,21.33
2022-12-08T08:30:22.896Z,22.70
2022-12-08T08:32:50.574Z,22.70
2022-12-08T08:35:17.540Z,23.03
2022-12-08T08:37:48.933Z,23.03
2022-12-08T08:40:17.813Z,23.43
2022-12-08T08:42:44.668Z,23.13
2022-12-08T08:45:11.557Z,22.87
2022-12-08T08:47:38.525Z,21.20
2022-12-08T08:50:06.409Z,20.20
2022-12-08T08:52:33.494Z,19.47
2022-12-08T08:55:00.435Z,18.50
2022-12-08T08:57:27.511Z,16.97
2022-12-08T08:59:54.579Z,17.60
2022-12-08T09:02:25.205Z,16.00
2022-12-08T09:04:52.867Z,14.37
2022-12-08T09:07:20.040Z,14.00
2022-12-08T09:09:47.067Z,15.70
2022-12-08T09:12:14.033Z,14.87
2022-12-08T09:14:40.919Z,15.57
2022-12-08T09:17:08.513Z,14.40
2022-12-08T09:19:35.420Z,17.70
2022-12-08T09:22:02.257Z,16.93
2022-12-08T09:24:29.161Z,17.47
2022-12-08T09:26:56.070Z,16.73
2022-12-08T09:29:23.057Z,14.97
2022-12-08T09:31:50.226Z,16.00
2022-12-08T09:34:17.357Z,15.50
2022-12-08T09:36:44.223Z,14.60
2022-12-08T09:39:11.091Z,15.03
2022-12-08T09:41:50.067Z,15.90
2022-12-08T09:44:40.339Z,14.70
2022-12-08T09:47:16.284Z,14.10
2022-12-08T09:49:50.628Z,12.40
2022-12-08T09:52:26.645Z,11.20
2022-12-08T09:54:59.019Z,13.13
2022-12-08T09:57:26.212Z,12.27
2022-12-08T09:59:58.428Z,14.43
2022-12-08T10:02:29.231Z,10.77
2022-12-08T10:04:58.196Z,11.77
2022-12-08T10:07:39.547Z,10.87
2022-12-08T10:10:15.356Z,10.47
2022-12-08T10:13:08.372Z,12.77
2022-12-08T10:15:44.278Z,13.30
2022-12-08T10:18:18.894Z,13.63
2022-12-08T10:20:49.633Z,13.13
2022-12-08T10:23:50.306Z,15.53
2022-12-08T10:26:20.112Z,15.70
2022-12-08T10:28:47.170Z,13.73
2022-12-08T10:31:21.693Z,15.17
2022-12-08T10:33:55.239Z,15.40
2022-12-08T10:36:22.185Z,15.97
2022-12-08T10:38:49.074Z,14.60
2022-12-08T10:41:18.204Z,14.43
2022-12-08T10:43:53.005Z,13.20
2022-12-08T10:46:28.422Z,14.67
2022-12-08T10:49:16.868Z,14.63
2022-12-08T10:51:43.866Z,13.20
2022-12-08T10:54:34.208Z,9.93
2022-12-08T10:57:03.537Z,10.87
2022-12-08T10:59:33.917Z,12.50
2022-12-08T11:02:01.204Z,10.67
2022-12-08T11:04:36.527Z,12.23
2022-12-08T11:07:06.439Z,12.00
2022-12-08T11:09:50.883Z,11.93
2022-12-08T11:12:20.498Z,12.90
2022-12-08T11:14:54.531Z,12.20
2022-12-08T11:17:27.186Z,13.33
2022-12-08T11:20:01.703Z,14.83
2022-12-08T11:22:38.770Z,16.63
2022-12-08T11:25:08.551Z,14.60
2022-12-08T11:27:38.537Z,14.20
2022-12-08T11:30:26.173Z,15.40
2022-12-08T11:33:23.980Z,13.33
2022-12-08T11:36:10.217Z,13.53
2022-12-08T11:38:41.997Z,13.57
2022-12-08T11:41:15.834Z,12.77
2022-12-08T11:44:01.665Z,12.90
2022-12-08T11:46:40.402Z,12.17
2022-12-08T11:49:13.379Z,15.47
2022-12-08T11:51:44.524Z,14.73
2022-12-08T11:54:11.742Z,15.83
2022-12-08T11:56:43.036Z,16.17
2022-12-08T11:59:28.940Z,14.43
2022-12-08T12:01:57.934Z,14.00
2022-12-08T12:04:31.022Z,15.30
2022-12-08T12:07:09.855Z,17.30
2022-12-08T12:09:40.641Z,19.70
2022-12-08T12:12:25.925Z,24.50
2022-12-08T12:15:07.720Z,14.53
2022-12-08T12:17:47.830Z,16.57
2022-12-08T12:20:28.596Z,14.30
2022-12-08T12:23:37.259Z,16.10
2022-12-08T12:26:09.009Z,19.33
2022-12-08T12:28:49.830Z,12.80
2022-12-08T12:31:21.880Z,11.87
2022-12-08T12:33:51.166Z,10.80
2022-12-08T12:36:18.305Z,12.57
2022-12-08T12:39:07.787Z,12.63
2022-12-08T12:41:51.986Z,14.30
2022-12-08T12:44:18.840Z,12.50
2022-12-08T12:46:48.848Z,12.43
2022-12-08T12:49:40.782Z,12.17
2022-12-08T12:52:16.976Z,12.67
2022-12-08T12:55:04.765Z,12.60
2022-12-08T12:57:49.841Z,13.03
2022-12-08T13:00:22.996Z,13.90
2022-12-08T13:02:51.822Z,14.53
2022-12-08T13:05:29.649Z,13.07
2022-12-08T13:07:59.403Z,14.90
2022-12-08T13:10:33.991Z,12.97
2022-12-08T13:13:03.866Z,13.90
2022-12-08T13:15:36.636Z,13.33
2022-12-08T13:18:04.781Z,14.27
2022-12-08T13:20:43.226Z,14.40
2022-12-08T13:23:27.803Z,13.93
2022-12-08T13:26:15.158Z,14.00
2022-12-08T13:29:07.122Z,15.80
2022-12-08T13:31:49.846Z,15.73
2022-12-08T13:34:20.263Z,15.13
2022-12-08T13:36:50.164Z,19.37
2022-12-08T13:39:25.682Z,19.27
2022-12-08T13:42:00.495Z,19.13
2022-12-08T13:45:43.534Z,21.57
2022-12-08T13:48:30.190Z,22.67
2022-12-08T13:57:32.918Z,21.53
2022-12-08T14:00:02.355Z,16.67
2022-12-08T14:02:47.746Z,14.33
2022-12-08T14:05:34.649Z,15.87
2022-12-08T14:08:42.984Z,13.77
2022-12-08T14:11:07.577Z,12.73
2022-12-08T14:13:34.744Z,15.13
2022-12-08T14:16:02.477Z,14.87
2022-12-08T14:18:31.916Z,15.97
2022-12-08T14:21:20.358Z,16.33
2022-12-08T14:23:48.170Z,15.13
2022-12-08T14:26:15.130Z,15.17
2022-12-08T14:28:45.171Z,17.27
2022-12-08T14:31:14.722Z,18.20
2022-12-08T14:33:42.953Z,16.00
2022-12-08T14:36:11.022Z,15.83
2022-12-08T14:38:38.263Z,15.30
2022-12-08T14:41:07.978Z,14.70
2022-12-08T14:43:35.044Z,15.63
2022-12-08T14:46:18.842Z,14.27
2022-12-08T14:48:45.920Z,13.73
2022-12-08T14:51:18.782Z,14.30
2022-12-08T14:53:56.621Z,13.87
2022-12-08T14:56:26.446Z,13.37
2022-12-08T14:59:03.200Z,13.10
2022-12-08T15:01:30.676Z,14.00
2022-12-08T15:04:07.133Z,16.47
2022-12-08T15:06:34.391Z,14.27
2022-12-08T15:09:29.933Z,13.03
2022-12-08T15:12:24.695Z,14.03
2022-12-08T15:15:14.477Z,15.60
2022-12-08T15:17:47.547Z,13.10
2022-12-08T15:20:51.825Z,16.67
2022-12-08T15:23:29.665Z,15.27
2022-12-08T15:25:57.432Z,15.90
2022-12-08T15:28:30.269Z,19.77
2022-12-08T15:30:58.598Z,22.27
2022-12-08T15:33:25.881Z,19.70
2022-12-08T15:35:53.071Z,20.07
2022-12-08T15:38:26.979Z,21.43
2022-12-08T15:40:54.819Z,18.23
2022-12-08T15:43:22.815Z,20.70
2022-12-08T15:45:59.884Z,21.17
2022-12-08T15:48:30.750Z,19.40
2022-12-08T15:50:58.420Z,17.97
2022-12-08T15:53:25.745Z,19.57
2022-12-08T15:56:25.628Z,19.57
2022-12-08T15:58:56.673Z,22.40
2022-12-08T16:01:24.299Z,22.57
2022-12-08T16:09:38.588Z,19.07
2022-12-08T16:12:25.353Z,19.13
2022-12-08T16:17:40.672Z,21.27
2022-12-08T16:20:18.073Z,22.07
2022-12-08T16:23:13.380Z,22.90
2022-12-08T16:26:00.045Z,22.83
2022-12-08T16:28:52.975Z,24.17
2022-12-08T16:31:15.086Z,24.87
2022-12-08T16:33:43.568Z,24.57
2022-12-08T16:36:11.357Z,26.87
2022-12-08T16:38:38.265Z,21.50
2022-12-08T16:41:23.835Z,20.10
2022-12-08T16:43:51.292Z,18.17
2022-12-08T16:46:25.994Z,18.60
2022-12-08T16:48:52.907Z,21.83
2022-12-08T16:51:26.657Z,22.50
2022-12-08T16:53:53.925Z,20.80
2022-12-08T16:56:22.286Z,19.80
2022-12-08T16:58:51.147Z,19.60
2022-12-08T17:07:59.358Z,18.97
2022-12-08T17:10:28.872Z,18.57
2022-12-08T17:12:56.618Z,18.73
2022-12-08T17:15:25.721Z,17.33
2022-12-08T17:17:55.896Z,18.60
2022-12-08T17:20:25.229Z,16.80
2022-12-08T17:22:57.806Z,18.50
2022-12-08T17:25:26.080Z,18.13
2022-12-08T17:27:53.028Z,18.10
2022-12-08T17:30:20.032Z,19.20
2022-12-08T17:32:50.011Z,20.60
2022-12-08T17:35:16.868Z,21.83
2022-12-08T17:37:43.997Z,24.87
2022-12-08T17:40:11.570Z,24.30
2022-12-08T17:42:39.672Z,22.50
2022-12-08T17:45:08.091Z,28.33
2022-12-08T17:47:35.708Z,26.90
2022-12-08T17:50:02.971Z,24.00
2022-12-08T17:52:30.799Z,24.40
2022-12-08T17:54:57.714Z,24.43
2022-12-08T17:57:24.676Z,20.77
2022-12-08T17:59:51.547Z,19.07
2022-12-08T18:02:18.469Z,16.93
2022-12-08T18:04:45.529Z,16.73
2022-12-08T18:07:12.437Z,16.17
2022-12-08T18:09:39.382Z,19.50
2022-12-08T18:12:06.508Z,20.63
2022-12-08T18:14:33.492Z,19.67
2022-12-08T18:17:00.599Z,20.50
2022-12-08T18:19:27.971Z,20.47
2022-12-08T18:21:54.899Z,21.00
2022-12-08T18:24:23.473Z,19.93
2022-12-08T18:26:56.255Z,22.27
2022-12-08T18:29:23.800Z,23.30
2022-12-08T18:31:51.036Z,22.23
2022-12-08T18:34:21.800Z,20.93
2022-12-08T18:36:49.126Z,17.03
2022-12-08T18:39:33.882Z,17.23
2022-12-08T18:42:22.744Z,15.57
2022-12-08T18:44:57.129Z,15.80
2022-12-08T18:47:24.304Z,13.63
2022-12-08T18:49:53.726Z,15.60
2022-12-08T18:52:28.266Z,15.07
2022-12-08T18:55:06.259Z,13.73
2022-12-08T18:57:34.303Z,17.53
2022-12-08T19:00:02.709Z,16.30
2022-12-08T19:02:31.079Z,16.70
2022-12-08T19:04:58.055Z,14.53
2022-12-08T19:07:24.910Z,16.77
2022-12-08T19:09:51.776Z,14.40
2022-12-08T19:12:18.682Z,14.37
2022-12-08T19:14:45.694Z,16.30
2022-12-08T19:17:12.705Z,15.27
2022-12-08T19:19:39.598Z,14.43
2022-12-08T19:22:06.494Z,17.47
2022-12-08T19:24:34.888Z,17.60
2022-12-08T19:27:01.937Z,15.27
2022-12-08T19:29:28.997Z,15.07
2022-12-08T19:31:55.904Z,13.90
2022-12-08T19:34:25.334Z,16.63
2022-12-08T19:36:52.290Z,16.27
2022-12-08T19:39:40.141Z,19.40
2022-12-08T19:42:34.762Z,18.00
2022-12-08T19:45:10.148Z,18.73
2022-12-08T19:47:37.139Z,19.23
2022-12-08T19:50:24.320Z,18.37
2022-12-08T19:52:54.568Z,20.43
2022-12-08T19:55:24.830Z,18.80
2022-12-08T19:57:52.707Z,18.77
2022-12-08T20:00:21.851Z,18.60
2022-12-08T20:02:48.910Z,18.67
2022-12-08T20:05:16.025Z,19.43
2022-12-08T20:07:43.008Z,18.57
2022-12-08T20:10:28.219Z,20.77
2022-12-08T20:13:16.134Z,22.30
2022-12-08T20:15:43.703Z,21.53
2022-12-08T20:18:12.388Z,21.03
2022-12-08T20:20:40.258Z,19.27
2022-12-08T20:23:07.456Z,19.33
2022-12-08T20:25:37.212Z,17.73
2022-12-08T20:28:04.477Z,18.53
2022-12-08T20:30:31.410Z,16.37
2022-12-08T20:32:58.374Z,16.00
2022-12-08T20:35:25.282Z,16.37
2022-12-08T20:37:52.221Z,14.93
2022-12-08T20:40:19.251Z,15.67
2022-12-08T20:42:46.497Z,16.17
2022-12-08T20:45:13.528Z,15.30
2022-12-08T20:47:40.408Z,15.43
2022-12-08T20:50:08.581Z,16.27
2022-12-08T20:52:37.936Z,15.53
2022-12-08T20:55:06.658Z,17.23
2022-12-08T20:57:34.057Z,16.37
2022-12-08T21:00:01.075Z,17.40
2022-12-08T21:02:28.193Z,16.37
2022-12-08T21:04:55.339Z,17.37
2022-12-08T21:07:22.280Z,17.90
2022-12-08T21:09:49.369Z,17.50
2022-12-08T21:12:16.448Z,17.97
2022-12-08T21:14:43.818Z,17.03
2022-12-08T21:17:11.106Z,17.47
2022-12-08T21:19:38.298Z,17.57
2022-12-08T21:22:05.331Z,17.50
2022-12-08T21:24:34.320Z,17.93
2022-12-08T21:27:01.854Z,18.63
2022-12-08T21:29:28.995Z,17.43
2022-12-08T21:32:00.204Z,17.87
2022-12-08T21:34:31.914Z,18.30
2022-12-08T21:36:59.118Z,17.37
2022-12-08T21:39:26.849Z,18.90
2022-12-08T21:42:12.782Z,19.23
2022-12-08T21:44:40.436Z,19.10
2022-12-08T21:47:08.036Z,19.87
2022-12-08T21:49:37.622Z,20.17
2022-12-08T21:52:04.637Z,22.07
2022-12-08T21:54:31.540Z,20.17
2022-12-08T21:56:58.661Z,21.40
2022-12-08T21:59:25.667Z,21.13
2022-12-08T22:01:52.723Z,23.07
2022-12-08T22:04:21.840Z,22.73
2022-12-08T22:06:49.068Z,23.57
2022-12-08T22:09:16.105Z,21.97
2022-12-08T22:11:43.923Z,21.60
2022-12-08T22:14:14.838Z,23.27
2022-12-08T22:16:43.824Z,22.80
2022-12-08T22:19:11.363Z,23.27
2022-12-08T22:21:38.469Z,22.30
2022-12-08T22:24:06.239Z,23.53
2022-12-08T22:26:33.657Z,23.90
2022-12-08T22:29:00.620Z,23.60
2022-12-08T22:31:28.115Z,21.00
2022-12-08T22:33:55.781Z,21.73
2022-12-08T22:36:25.068Z,21.67
2022-12-08T22:38:53.399Z,22.87
2022-12-08T22:41:21.756Z,21.80
2022-12-08T22:43:51.318Z,22.30
2022-12-08T22:46:26.855Z,21.30
2022-12-08T22:48:54.856Z,23.57
2022-12-08T22:51:22.067Z,25.10
2022-12-08T22:53:49.683Z,21.67
2022-12-08T22:56:17.660Z,22.20
2022-12-08T22:58:45.540Z,25.90
2022-12-08T23:01:23.118Z,24.70
2022-12-08T23:03:50.225Z,21.73
2022-12-08T23:06:17.388Z,23.93
2022-12-08T23:08:45.192Z,22.67
2022-12-08T23:11:12.892Z,23.17
2022-12-08T23:13:42.256Z,22.90
2022-12-08T23:16:10.982Z,21.00
2022-12-08T23:18:42.189Z,21.93
2022-12-08T23:21:15.722Z,19.97
2022-12-08T23:23:42.904Z,20.17
2022-12-08T23:26:28.150Z,20.90
2022-12-08T23:28:55.674Z,19.70
2022-12-08T23:31:23.115Z,19.83
2022-12-08T23:33:50.571Z,20.03
2022-12-08T23:36:19.934Z,19.33
2022-12-08T23:38:47.281Z,21.90
2022-12-08T23:41:16.033Z,20.83
2022-12-08T23:43:48.848Z,22.10
2022-12-08T23:46:17.740Z,23.47
2022-12-08T23:48:44.731Z,24.07
2022-12-08T23:51:12.635Z,21.33
2022-12-08T23:53:40.142Z,20.63
2022-12-08T23:56:10.116Z,19.47
2022-12-08T23:58:37.186Z,19.63
